Time;durP1;ratioP1;P1;durP2;ratioP2;P2;SDS_P1;SDS_P2;PMS_P1;PMS_P2;Temp;Humidity;BMP_temperature;BMP_pressure;BME280_temperature;BME280_humidity;BME280_pressure;Samples;Min_cycle;Max_cycle;Signal;HPM_P1;HPM_P2
2021/03/09 00:00:20;;;;;;;18.55;13.57;;;21.70;44.10;;;;;;5054330;28;20123;-60
2021/03/09 00:02:46;;;;;;;16.98;12.40;;;21.70;44.20;;;;;;5073388;28;20060;-60
2021/03/09 00:05:12;;;;;;;20.63;12.48;;;21.70;44.80;;;;;;5055449;28;20040;-59
2021/03/09 00:07:40;;;;;;;12.70;10.65;;;21.60;44.20;;;;;;5055603;28;20029;-60
2021/03/09 00:10:08;;;;;;;16.58;9.80;;;21.60;44.20;;;;;;5055740;28;20463;-60
2021/03/09 00:12:34;;;;;;;17.75;10.15;;;21.60;44.20;;;;;;5073008;28;20381;-60
2021/03/09 00:15:01;;;;;;;16.70;10.13;;;21.60;44.10;;;;;;5054720;28;20032;-60
2021/03/09 00:17:27;;;;;;;14.40;9.68;;;21.60;44.20;;;;;;5055069;28;20041;-60
2021/03/09 00:19:53;;;;;;;13.40;8.77;;;21.60;44.20;;;;;;5072939;28;20478;-60
2021/03/09 00:22:19;;;;;;;15.45;8.90;;;21.60;44.20;;;;;;5072678;28;20059;-61
2021/03/09 00:24:45;;;;;;;15.88;8.65;;;21.60;44.30;;;;;;5072674;28;20043;-61
2021/03/09 00:27:11;;;;;;;13.25;8.00;;;21.60;44.30;;;;;;5088292;28;20024;-60
2021/03/09 00:29:37;;;;;;;17.73;8.38;;;21.50;44.20;;;;;;5088423;28;20025;-61
2021/03/09 00:32:08;;;;;;;12.68;7.97;;;21.50;44.20;;;;;;5038651;28;20047;-60
2021/03/09 00:34:34;;;;;;;13.18;7.72;;;21.50;44.30;;;;;;5073052;28;20037;-60
2021/03/09 00:37:00;;;;;;;10.85;7.07;;;21.50;44.30;;;;;;5072796;28;20028;-59
2021/03/09 00:39:26;;;;;;;10.90;7.00;;;21.50;44.30;;;;;;5073024;28;20039;-60
2021/03/09 00:41:52;;;;;;;11.40;6.55;;;21.50;44.30;;;;;;5072811;28;20035;-59
2021/03/09 00:44:19;;;;;;;11.15;6.38;;;21.50;44.40;;;;;;5054569;28;20028;-60
2021/03/09 00:46:45;;;;;;;13.57;7.05;;;21.40;44.40;;;;;;5087753;28;20040;-60
2021/03/09 00:49:11;;;;;;;12.52;7.03;;;21.40;44.30;;;;;;5087927;28;20474;-60
2021/03/09 00:51:37;;;;;;;8.73;5.95;;;21.40;44.40;;;;;;5053725;28;20023;-60
2021/03/09 00:54:03;;;;;;;11.57;6.75;;;21.40;44.40;;;;;;5071310;28;20052;-59
2021/03/09 00:56:29;;;;;;;9.07;6.25;;;21.40;44.50;;;;;;5036445;28;20040;-60
2021/03/09 00:58:55;;;;;;;9.07;6.20;;;21.40;44.40;;;;;;5072697;28;20029;-60
2021/03/09 01:01:21;;;;;;;11.13;6.25;;;21.30;44.40;;;;;;5054698;28;20027;-59
2021/03/09 01:03:47;;;;;;;10.25;6.07;;;21.30;44.40;;;;;;5072385;28;20063;-59
2021/03/09 01:06:13;;;;;;;11.27;6.05;;;21.30;44.40;;;;;;5072738;28;20020;-60
2021/03/09 01:08:39;;;;;;;10.95;5.60;;;21.30;44.50;;;;;;5072404;28;20048;-60
2021/03/09 01:11:05;;;;;;;14.60;5.35;;;21.30;44.40;;;;;;5072799;28;20173;-60
2021/03/09 01:13:31;;;;;;;11.77;5.40;;;21.30;44.40;;;;;;5072590;28;20115;-60
2021/03/09 01:15:57;;;;;;;10.70;5.43;;;21.30;44.40;;;;;;5073201;28;20122;-60
2021/03/09 01:18:23;;;;;;;8.18;4.60;;;21.30;44.50;;;;;;5072437;28;20024;-59
2021/03/09 01:20:49;;;;;;;7.80;5.07;;;21.20;44.40;;;;;;5072408;28;20045;-59
2021/03/09 01:23:16;;;;;;;10.65;4.93;;;21.20;44.40;;;;;;5070106;28;20025;-61
2021/03/09 01:25:42;;;;;;;11.15;5.85;;;21.20;44.50;;;;;;5088160;28;20025;-59
2021/03/09 01:28:09;;;;;;;8.00;4.90;;;21.20;44.50;;;;;;5090551;28;20033;-60
2021/03/09 01:30:35;;;;;;;7.85;4.78;;;21.20;44.50;;;;;;5091855;28;20386;-59
2021/03/09 01:33:01;;;;;;;10.95;5.18;;;21.20;44.50;;;;;;5076297;28;20048;-60
2021/03/09 01:35:28;;;;;;;10.52;5.15;;;21.20;44.50;;;;;;5058274;28;20029;-59
2021/03/09 01:37:55;;;;;;;8.50;5.18;;;21.20;44.50;;;;;;5076056;28;20497;-59
2021/03/09 01:40:22;;;;;;;12.43;5.13;;;21.10;44.40;;;;;;5076120;28;20044;-59
2021/03/09 01:42:48;;;;;;;13.85;5.28;;;21.10;44.40;;;;;;5075766;28;20351;-59
2021/03/09 01:45:15;;;;;;;9.57;5.47;;;21.20;44.50;;;;;;5075921;28;20017;-60
2021/03/09 01:47:46;;;;;;;8.65;4.50;;;21.10;44.40;;;;;;5075435;28;20044;-59
2021/03/09 01:50:14;;;;;;;9.38;4.85;;;21.10;44.40;;;;;;5057819;28;20051;-58
2021/03/09 01:52:42;;;;;;;10.50;5.20;;;21.10;44.40;;;;;;5039449;28;20089;-59
2021/03/09 01:55:11;;;;;;;11.13;4.22;;;21.10;44.40;;;;;;5074421;28;20475;-59
2021/03/09 01:57:38;;;;;;;10.68;4.40;;;21.10;44.40;;;;;;5074411;28;20128;-58
2021/03/09 02:00:06;;;;;;;9.02;4.93;;;21.10;44.50;;;;;;5074542;28;20473;-59
2021/03/09 02:02:39;;;;;;;14.25;4.97;;;21.10;44.50;;;;;;5074704;28;20060;-59
2021/03/09 02:05:08;;;;;;;10.75;4.60;;;21.10;45.10;;;;;;5075449;28;20052;-59
2021/03/09 02:07:34;;;;;;;10.35;4.43;;;21.10;44.50;;;;;;5075890;28;20069;-60
2021/03/09 02:10:03;;;;;;;12.52;5.45;;;21.10;44.50;;;;;;5073947;28;20474;-60
2021/03/09 02:12:53;;;;;;;7.72;4.65;;;21.10;44.50;;;;;;5089993;28;20039;-60
2021/03/09 02:15:59;;;;;;;6.68;4.15;;;21.10;44.50;;;;;;5075371;28;20475;-60
2021/03/09 02:18:44;;;;;;;7.55;4.50;;;21.10;44.50;;;;;;5072153;28;20068;-60
2021/03/09 02:21:24;;;;;;;8.75;4.78;;;21.10;44.50;;;;;;5074174;28;20117;-59
2021/03/09 02:24:21;;;;;;;7.70;4.15;;;21.10;44.40;;;;;;5055487;28;20060;-60
2021/03/09 02:27:15;;;;;;;10.50;4.70;;;21.00;44.50;;;;;;5074134;28;20021;-61
2021/03/09 02:29:41;;;;;;;10.10;4.20;;;21.10;44.50;;;;;;5053989;28;20029;-59
2021/03/09 02:32:12;;;;;;;7.43;4.20;;;21.00;44.40;;;;;;5066343;28;20024;-59
2021/03/09 02:34:54;;;;;;;9.55;4.60;;;21.00;44.50;;;;;;5075268;28;20032;-59
2021/03/09 02:37:22;;;;;;;8.10;4.05;;;21.00;44.60;;;;;;5040590;28;20374;-60
2021/03/09 02:39:50;;;;;;;10.68;4.65;;;21.00;44.60;;;;;;5074070;28;20032;-59
2021/03/09 02:42:25;;;;;;;6.15;3.75;;;21.00;44.60;;;;;;5090495;28;20032;-59
2021/03/09 02:44:56;;;;;;;7.93;4.43;;;21.00;44.70;;;;;;5090424;28;20032;-60
2021/03/09 02:47:23;;;;;;;7.30;4.30;;;21.00;44.60;;;;;;5075166;28;20020;-60
2021/03/09 02:49:53;;;;;;;9.50;4.40;;;21.00;44.60;;;;;;5074669;28;20032;-59
2021/03/09 02:52:22;;;;;;;10.98;4.32;;;21.00;44.60;;;;;;5074140;28;20028;-61
2021/03/09 02:54:50;;;;;;;9.52;4.43;;;21.00;44.70;;;;;;5074645;28;20056;-59
2021/03/09 02:57:17;;;;;;;11.25;4.22;;;21.00;44.70;;;;;;5074715;28;20118;-59
2021/03/09 02:59:45;;;;;;;11.25;4.90;;;21.00;44.70;;;;;;5056569;28;20112;-60
2021/03/09 03:02:17;;;;;;;10.70;4.97;;;21.00;44.70;;;;;;5056732;28;20028;-60
2021/03/09 03:04:49;;;;;;;6.82;4.43;;;21.00;44.80;;;;;;5074522;28;20051;-60
2021/03/09 03:07:17;;;;;;;12.15;4.63;;;20.90;44.70;;;;;;5090073;28;20051;-59
2021/03/09 03:09:44;;;;;;;9.98;3.75;;;21.00;44.70;;;;;;5073378;28;20028;-59
2021/03/09 03:12:12;;;;;;;10.95;4.22;;;21.00;44.70;;;;;;5055986;28;20493;-59
2021/03/09 03:14:41;;;;;;;11.30;4.63;;;20.90;44.70;;;;;;5089963;28;20489;-61
2021/03/09 03:17:08;;;;;;;9.07;4.32;;;20.90;44.80;;;;;;5056345;28;20379;-59
2021/03/09 03:19:35;;;;;;;6.93;4.50;;;20.90;44.80;;;;;;5074287;28;20033;-59
2021/03/09 03:22:02;;;;;;;8.10;4.55;;;20.90;44.90;;;;;;5081809;28;20028;-59
2021/03/09 03:24:30;;;;;;;7.85;4.72;;;21.00;44.90;;;;;;5089742;28;20073;-59
2021/03/09 03:26:57;;;;;;;8.95;4.40;;;20.90;44.90;;;;;;5074173;28;20029;-59
2021/03/09 03:29:24;;;;;;;7.20;4.40;;;20.90;44.90;;;;;;5074106;28;20021;-59
2021/03/09 03:31:50;;;;;;;8.98;3.92;;;20.90;44.80;;;;;;5073867;28;20032;-59
2021/03/09 03:34:17;;;;;;;9.73;4.13;;;20.90;44.80;;;;;;5073865;28;20021;-59
2021/03/09 03:36:43;;;;;;;9.52;4.40;;;20.90;44.80;;;;;;5055506;28;20154;-59
2021/03/09 03:39:09;;;;;;;7.72;4.10;;;20.90;44.80;;;;;;5073565;28;20023;-60
2021/03/09 03:41:35;;;;;;;9.82;5.10;;;20.90;44.90;;;;;;5072844;28;20029;-60
2021/03/09 03:44:03;;;;;;;8.82;4.15;;;20.90;44.90;;;;;;5072873;28;20038;-60
2021/03/09 03:46:29;;;;;;;9.70;4.18;;;20.90;44.90;;;;;;5073148;28;20120;-59
2021/03/09 03:48:55;;;;;;;8.98;4.18;;;20.90;44.90;;;;;;5054832;28;20040;-60
2021/03/09 03:51:29;;;;;;;11.90;4.38;;;20.80;44.90;;;;;;5088878;28;20106;-60
2021/03/09 03:54:07;;;;;;;6.78;4.18;;;20.90;45.00;;;;;;5055601;28;20043;-59
2021/03/09 03:56:54;;;;;;;9.23;4.47;;;20.80;44.90;;;;;;5055783;28;20036;-59
2021/03/09 03:59:31;;;;;;;7.70;5.15;;;20.80;44.90;;;;;;5073625;28;20040;-59
2021/03/09 04:02:03;;;;;;;10.07;5.20;;;20.90;44.90;;;;;;5073485;28;20131;-59
2021/03/09 04:04:31;;;;;;;7.72;3.95;;;20.80;44.90;;;;;;5073584;28;20029;-59
2021/03/09 04:06:57;;;;;;;7.90;5.15;;;20.90;45.00;;;;;;5073179;28;20153;-59
2021/03/09 04:09:24;;;;;;;11.57;5.40;;;20.90;44.90;;;;;;5073613;28;20452;-59
2021/03/09 04:11:52;;;;;;;8.73;4.50;;;20.80;44.90;;;;;;5038644;28;20470;-60
2021/03/09 04:14:18;;;;;;;11.02;5.45;;;20.80;44.90;;;;;;5073067;28;20021;-60
2021/03/09 04:16:48;;;;;;;8.70;5.30;;;20.80;45.00;;;;;;5073234;28;20470;-60
2021/03/09 04:19:16;;;;;;;10.98;5.28;;;20.80;45.00;;;;;;5088681;28;20032;-60
2021/03/09 04:21:43;;;;;;;6.88;4.78;;;20.80;44.90;;;;;;5073288;28;20055;-60
2021/03/09 04:24:11;;;;;;;8.25;5.28;;;20.80;45.00;;;;;;5055183;28;20020;-60
2021/03/09 04:26:40;;;;;;;11.98;5.97;;;20.80;45.00;;;;;;5089068;28;20077;-59
2021/03/09 04:29:09;;;;;;;12.25;6.18;;;20.80;45.00;;;;;;5073008;28;20104;-60
2021/03/09 04:31:36;;;;;;;9.85;5.20;;;20.80;45.00;;;;;;5055360;28;20059;-59
2021/03/09 04:34:03;;;;;;;7.72;5.07;;;20.80;45.00;;;;;;5072787;28;20478;-60
2021/03/09 04:36:30;;;;;;;11.45;5.18;;;20.80;45.00;;;;;;5055307;28;20021;-59
2021/03/09 04:38:56;;;;;;;11.80;6.55;;;20.80;45.00;;;;;;5054874;28;20035;-59
2021/03/09 04:41:22;;;;;;;9.35;5.45;;;20.80;45.00;;;;;;5073179;28;20029;-59
2021/03/09 04:43:49;;;;;;;8.00;5.18;;;20.80;45.00;;;;;;5072699;28;20025;-60
2021/03/09 04:46:15;;;;;;;8.07;5.00;;;20.80;45.00;;;;;;5072528;28;20434;-59
2021/03/09 04:48:41;;;;;;;11.13;5.63;;;20.70;45.00;;;;;;5072775;28;20027;-60
2021/03/09 04:51:11;;;;;;;11.25;5.78;;;20.80;45.00;;;;;;5072749;28;20051;-60
2021/03/09 04:53:38;;;;;;;9.10;6.03;;;20.70;45.00;;;;;;5073304;28;20029;-59
2021/03/09 04:56:05;;;;;;;11.68;5.15;;;20.70;44.90;;;;;;5072528;28;20029;-59
2021/03/09 04:58:31;;;;;;;8.88;5.80;;;20.70;45.00;;;;;;5036618;28;20029;-60
2021/03/09 05:00:57;;;;;;;13.20;6.07;;;20.70;45.00;;;;;;5088155;28;20115;-60
2021/03/09 05:03:23;;;;;;;12.02;5.47;;;20.70;45.00;;;;;;5058304;28;20020;-60
2021/03/09 05:05:50;;;;;;;7.22;5.10;;;20.70;45.10;;;;;;5076844;28;20028;-60
2021/03/09 05:08:16;;;;;;;9.18;5.90;;;20.70;45.00;;;;;;5092686;28;20020;-60
2021/03/09 05:10:42;;;;;;;9.00;5.72;;;20.70;45.10;;;;;;5092270;28;20127;-60
2021/03/09 05:13:08;;;;;;;10.32;5.32;;;20.60;45.10;;;;;;5092428;28;20427;-61
2021/03/09 05:15:34;;;;;;;7.70;5.05;;;20.70;45.10;;;;;;5058680;28;20097;-60
2021/03/09 05:18:00;;;;;;;7.70;5.10;;;20.60;45.10;;;;;;5076776;28;20039;-59
2021/03/09 05:20:27;;;;;;;8.18;4.60;;;20.70;45.20;;;;;;5076496;28;20391;-59
2021/03/09 05:22:53;;;;;;;8.30;5.05;;;20.60;45.10;;;;;;5076761;28;20075;-60
2021/03/09 05:25:19;;;;;;;9.05;5.43;;;20.60;45.20;;;;;;5076350;28;20024;-59
2021/03/09 05:27:49;;;;;;;9.23;5.85;;;20.70;45.20;;;;;;5076490;28;20044;-60
2021/03/09 05:30:20;;;;;;;9.32;5.15;;;20.60;45.20;;;;;;5075935;28;20038;-61
2021/03/09 05:32:47;;;;;;;10.88;4.95;;;20.70;45.30;;;;;;5092127;28;20032;-61
2021/03/09 05:35:15;;;;;;;9.40;5.82;;;20.60;45.20;;;;;;5076050;28;20021;-61
2021/03/09 05:37:42;;;;;;;7.25;4.95;;;20.60;45.20;;;;;;5076218;28;20028;-62
2021/03/09 05:40:09;;;;;;;6.85;4.72;;;20.70;45.30;;;;;;5076314;28;20521;-63
2021/03/09 05:42:35;;;;;;;10.55;5.18;;;20.70;45.30;;;;;;5076332;28;20040;-62
2021/03/09 05:45:04;;;;;;;8.15;4.90;;;20.60;45.20;;;;;;5076033;28;20047;-64
2021/03/09 05:47:30;;;;;;;8.55;5.05;;;20.60;45.20;;;;;;5076224;28;20375;-60
2021/03/09 05:49:58;;;;;;;12.57;5.85;;;20.60;45.20;;;;;;5091685;28;20029;-63
2021/03/09 05:52:25;;;;;;;9.32;4.85;;;20.60;45.20;;;;;;5075824;28;20167;-62
2021/03/09 05:54:51;;;;;;;10.18;5.80;;;20.60;45.10;;;;;;5076038;28;20066;-60
2021/03/09 05:57:17;;;;;;;8.73;5.40;;;20.60;45.20;;;;;;5075744;28;20024;-61
2021/03/09 05:59:44;;;;;;;7.80;4.90;;;20.60;45.30;;;;;;5057619;28;20381;-60
2021/03/09 06:02:10;;;;;;;7.82;5.30;;;20.60;45.30;;;;;;5075948;28;20433;-61
2021/03/09 06:04:37;;;;;;;8.40;4.97;;;20.50;45.20;;;;;;5075720;28;20027;-61
2021/03/09 06:07:03;;;;;;;10.55;4.50;;;20.50;45.30;;;;;;5090423;28;20578;-61
2021/03/09 06:09:43;;;;;;;9.38;4.63;;;20.50;45.20;;;;;;5075352;28;20055;-60
2021/03/09 06:12:19;;;;;;;10.43;5.28;;;20.50;45.30;;;;;;5075546;28;20371;-61
2021/03/09 06:14:55;;;;;;;10.63;4.75;;;20.50;45.20;;;;;;5076128;28;20020;-62
2021/03/09 06:17:37;;;;;;;8.57;5.35;;;20.50;45.20;;;;;;5091431;28;20440;-61
2021/03/09 06:20:05;;;;;;;7.53;5.10;;;20.50;45.30;;;;;;5078490;28;20055;-61
2021/03/09 06:22:40;;;;;;;7.10;5.35;;;20.50;45.30;;;;;;5075297;28;20066;-61
2021/03/09 06:25:09;;;;;;;7.63;5.10;;;20.50;45.40;;;;;;5090979;28;20028;-61
2021/03/09 06:27:36;;;;;;;6.85;4.50;;;20.50;45.40;;;;;;5057331;28;20312;-62
2021/03/09 06:30:06;;;;;;;12.88;4.85;;;20.50;45.30;;;;;;5057533;28;20039;-62
2021/03/09 06:32:44;;;;;;;8.68;5.78;;;20.50;45.40;;;;;;5079348;28;20032;-62
2021/03/09 06:35:40;;;;;;;7.88;4.75;;;20.50;45.40;;;;;;5095378;28;20036;-62
2021/03/09 06:38:24;;;;;;;11.68;6.00;;;20.50;45.40;;;;;;5079084;28;20505;-62
2021/03/09 06:41:05;;;;;;;10.05;5.63;;;20.40;45.30;;;;;;5095639;28;20428;-62
2021/03/09 06:43:31;;;;;;;14.90;10.18;;;20.40;45.30;;;;;;5066489;28;20478;-61
2021/03/09 06:46:30;;;;;;;18.42;12.70;;;20.40;45.30;;;;;;5073734;28;20480;-59
2021/03/09 06:49:04;;;;;;;22.10;16.13;;;20.40;45.30;;;;;;4974362;28;20125;-62
2021/03/09 06:51:38;;;;;;;29.58;22.17;;;20.40;45.30;;;;;;4985641;28;20034;-62
2021/03/09 06:54:13;;;;;;;31.90;24.23;;;20.40;45.40;;;;;;4977451;28;20566;-59
2021/03/09 06:56:43;;;;;;;112.60;88.43;;;20.40;45.40;;;;;;4992959;28;20030;-62
2021/03/09 06:59:25;;;;;;;67.97;56.67;;;20.40;45.30;;;;;;5001481;28;20172;-59
2021/03/09 07:02:11;;;;;;;73.25;63.28;;;20.30;45.20;;;;;;5012890;28;20158;-59
2021/03/09 07:04:41;;;;;;;84.00;70.65;;;20.30;45.30;;;;;;5007361;28;20041;-59
2021/03/09 07:07:09;;;;;;;74.15;66.10;;;20.30;45.40;;;;;;4987937;28;20030;-60
2021/03/09 07:09:35;;;;;;;75.18;63.70;;;20.30;45.50;;;;;;4977255;28;20035;-60
2021/03/09 07:12:07;;;;;;;71.68;61.58;;;20.30;45.50;;;;;;4992723;28;20133;-59
2021/03/09 07:14:34;;;;;;;68.72;60.85;;;20.30;45.70;;;;;;4993272;28;20065;-59
2021/03/09 07:17:02;;;;;;;69.78;58.33;;;20.30;45.60;;;;;;4992853;28;20572;-60
2021/03/09 07:19:42;;;;;;;67.30;58.40;;;20.30;45.70;;;;;;4993027;28;20038;-59
2021/03/09 07:22:10;;;;;;;66.88;54.72;;;20.40;45.80;;;;;;4993025;28;20511;-60
2021/03/09 07:24:45;;;;;;;67.53;56.97;;;20.40;45.70;;;;;;5025953;28;20072;-59
2021/03/09 07:27:17;;;;;;;60.97;48.35;;;20.40;45.70;;;;;;5054101;28;20348;-60
2021/03/09 07:29:52;;;;;;;65.05;52.08;;;20.40;45.70;;;;;;5054121;28;20078;-61
2021/03/09 07:32:22;;;;;;;57.08;47.97;;;20.40;45.70;;;;;;5054199;28;20076;-63
2021/03/09 07:34:49;;;;;;;58.17;50.50;;;20.40;45.70;;;;;;5054316;28;20037;-63
2021/03/09 07:37:17;;;;;;;58.33;49.78;;;20.50;45.80;;;;;;5054009;28;20039;-62
2021/03/09 07:39:44;;;;;;;59.45;47.33;;;20.50;45.80;;;;;;5054270;28;20025;-60
2021/03/09 07:42:11;;;;;;;199.70;172.77;;;20.50;45.80;;;;;;5053850;28;20087;-57
2021/03/09 07:44:39;;;;;;;257.38;229.07;;;20.50;45.60;;;;;;5054001;28;20023;-58
2021/03/09 07:47:08;;;;;;;263.90;231.40;;;20.50;45.50;;;;;;5054105;28;20025;-57
2021/03/09 07:49:35;;;;;;;211.38;181.43;;;20.50;45.50;;;;;;5053922;28;20040;-62
2021/03/09 07:52:13;;;;;;;219.50;192.45;;;20.50;45.60;;;;;;5053710;28;20025;-60
2021/03/09 07:55:00;;;;;;;204.32;181.80;;;20.50;45.70;;;;;;5056234;28;20164;-60
2021/03/09 07:57:26;;;;;;;184.73;157.80;;;20.50;45.80;;;;;;5055555;28;20033;-61
2021/03/09 07:59:55;;;;;;;184.43;161.90;;;20.50;45.70;;;;;;5072985;28;20046;-59
2021/03/09 08:02:40;;;;;;;167.23;144.63;;;20.50;45.90;;;;;;5055093;28;20482;-60
2021/03/09 08:05:07;;;;;;;136.43;117.60;;;20.60;46.00;;;;;;5072158;28;20063;-60
2021/03/09 08:07:53;;;;;;;126.88;109.97;;;20.60;46.10;;;;;;5038629;28;20374;-62
2021/03/09 08:10:40;;;;;;;107.07;92.28;;;20.60;46.10;;;;;;5073465;28;20047;-61
2021/03/09 08:13:12;;;;;;;100.05;85.57;;;20.60;46.10;;;;;;5055468;28;20394;-60
2021/03/09 08:15:39;;;;;;;84.78;71.55;;;20.60;46.00;;;;;;5073407;28;20029;-64
2021/03/09 08:18:24;;;;;;;77.03;60.88;;;20.60;46.00;;;;;;5055418;28;20029;-65
2021/03/09 08:20:57;;;;;;;72.93;57.50;;;20.60;45.90;;;;;;5046356;28;20401;-64
2021/03/09 08:23:35;;;;;;;58.90;45.70;;;20.60;45.90;;;;;;5072052;28;20059;-65
2021/03/09 08:26:28;;;;;;;54.88;47.13;;;20.60;45.60;;;;;;5072333;28;20120;-65
2021/03/09 08:28:55;;;;;;;49.08;36.88;;;20.60;45.60;;;;;;5073299;28;20097;-67
2021/03/09 08:31:21;;;;;;;49.88;37.30;;;20.70;45.50;;;;;;5071902;28;20048;-66
2021/03/09 08:33:55;;;;;;;48.47;36.35;;;20.70;45.40;;;;;;5055322;28;20478;-66
2021/03/09 08:36:21;;;;;;;40.45;31.90;;;20.70;45.30;;;;;;5057172;28;20039;-66
2021/03/09 08:39:09;;;;;;;34.42;26.25;;;20.70;45.80;;;;;;5083262;28;20148;-66
2021/03/09 08:41:35;;;;;;;39.95;25.52;;;20.70;45.10;;;;;;5092145;28;20115;-64
2021/03/09 08:44:21;;;;;;;25.98;19.67;;;20.80;45.20;;;;;;5092863;28;20418;-66
2021/03/09 08:47:04;;;;;;;26.17;17.33;;;20.80;45.00;;;;;;5074692;28;20024;-66
2021/03/09 08:49:37;;;;;;;23.95;15.48;;;20.80;44.90;;;;;;5080985;28;20040;-65
2021/03/09 08:52:10;;;;;;;19.50;13.68;;;20.80;44.80;;;;;;5057490;28;20382;-63
2021/03/09 08:54:45;;;;;;;28.42;19.55;;;20.80;44.90;;;;;;5071006;28;20027;-65
2021/03/09 08:57:23;;;;;;;51.58;24.90;;;20.80;44.80;;;;;;5054263;28;20052;-59
2021/03/09 08:59:52;;;;;;;29.92;20.35;;;20.90;44.70;;;;;;5052764;28;20021;-60
2021/03/09 09:02:21;;;;;;;53.75;38.17;;;20.90;44.60;;;;;;5069892;28;20028;-59
2021/03/09 09:05:01;;;;;;;61.25;40.92;;;21.00;44.50;;;;;;5067330;28;20537;-60
2021/03/09 09:07:36;;;;;;;;;;;20.90;44.40;;;;;;5067972;28;20037;-59
2021/03/09 09:10:14;;;;;;;42.80;25.75;;;20.90;44.60;;;;;;5068514;28;20370;-59
2021/03/09 09:13:08;;;;;;;28.27;20.13;;;21.00;43.90;;;;;;5066932;28;20029;-59
2021/03/09 09:15:34;;;;;;;26.25;15.45;;;21.10;44.10;;;;;;5065453;28;20048;-61
2021/03/09 09:18:05;;;;;;;19.58;13.82;;;21.00;43.90;;;;;;5067679;28;20033;-60
2021/03/09 09:20:39;;;;;;;17.10;9.88;;;21.00;43.80;;;;;;5067198;28;20071;-60
2021/03/09 09:23:28;;;;;;;18.30;10.68;;;21.00;43.50;;;;;;5068832;28;20498;-59
2021/03/09 09:26:00;;;;;;;15.43;9.43;;;21.00;43.60;;;;;;5059536;28;20078;-60
2021/03/09 09:28:34;;;;;;;11.32;7.50;;;21.00;43.60;;;;;;5101570;28;20028;-59
2021/03/09 09:31:04;;;;;;;14.07;6.72;;;21.00;43.70;;;;;;5069134;28;20115;-59
2021/03/09 09:33:30;;;;;;;11.60;6.80;;;21.00;43.70;;;;;;5051378;28;20028;-60
2021/03/09 09:35:57;;;;;;;14.00;7.30;;;21.00;43.70;;;;;;5051797;28;20091;-60
2021/03/09 09:38:23;;;;;;;17.95;6.30;;;21.00;43.60;;;;;;5101758;28;20036;-60
2021/03/09 09:40:56;;;;;;;34.53;24.25;;;21.00;43.60;;;;;;5069617;28;20032;-61
2021/03/09 09:43:24;;;;;;;28.77;20.67;;;21.00;43.50;;;;;;5070512;28;20040;-59
2021/03/09 09:46:01;;;;;;;26.67;20.30;;;21.00;43.60;;;;;;5067936;28;20082;-58
2021/03/09 09:48:36;;;;;;;27.85;16.75;;;21.00;43.50;;;;;;5069543;28;21270;-59
2021/03/09 09:51:04;;;;;;;22.60;15.65;;;21.00;43.50;;;;;;5072269;28;20032;-59
2021/03/09 09:53:40;;;;;;;24.35;14.10;;;21.10;43.80;;;;;;5073889;28;20435;-61
2021/03/09 09:56:32;;;;;;;17.13;10.73;;;21.10;43.60;;;;;;5074944;28;20070;-59
2021/03/09 09:59:02;;;;;;;16.67;8.95;;;21.30;43.50;;;;;;5071276;28;20067;-61
2021/03/09 10:01:38;;;;;;;18.65;8.48;;;21.50;43.30;;;;;;5073413;28;20497;-60
2021/03/09 10:04:06;;;;;;;54.08;36.08;;;21.70;42.90;;;;;;5070062;28;20082;-60
2021/03/09 10:06:39;;;;;;;40.53;23.38;;;21.90;42.70;;;;;;5069267;28;20036;-59
2021/03/09 10:09:25;;;;;;;33.70;17.17;;;22.10;42.40;;;;;;5070665;28;20024;-61
2021/03/09 10:12:01;;;;;;;25.13;12.20;;;22.40;42.70;;;;;;5073685;28;20032;-61
2021/03/09 10:14:31;;;;;;;21.13;10.35;;;22.70;41.50;;;;;;5072051;28;20036;-60
2021/03/09 10:16:59;;;;;;;19.15;9.43;;;22.90;41.20;;;;;;5074664;28;20059;-60
2021/03/09 10:19:36;;;;;;;21.23;9.70;;;23.10;41.00;;;;;;5074870;28;20114;-60
2021/03/09 10:22:15;;;;;;;17.63;9.77;;;23.20;40.40;;;;;;5076133;28;20032;-58
2021/03/09 10:24:41;;;;;;;17.83;9.05;;;23.40;40.50;;;;;;5083877;28;20109;-59
2021/03/09 10:27:14;;;;;;;15.15;8.88;;;23.50;40.50;;;;;;5076435;28;20054;-59
2021/03/09 10:29:40;;;;;;;23.80;10.52;;;23.50;40.10;;;;;;5094722;28;20104;-59
2021/03/09 10:32:13;;;;;;;21.10;9.50;;;23.70;40.50;;;;;;5094369;28;20081;-58
2021/03/09 10:34:40;;;;;;;23.85;7.97;;;23.90;40.00;;;;;;5107934;28;20028;-59
2021/03/09 10:37:11;;;;;;;17.80;7.30;;;24.10;40.00;;;;;;5075363;28;20430;-58
2021/03/09 10:39:57;;;;;;;118.82;105.93;;;24.30;39.60;;;;;;5075489;28;20027;-59
2021/03/09 10:42:33;;;;;;;104.45;93.53;;;24.50;39.20;;;;;;5093487;28;20028;-59
2021/03/09 10:45:30;;;;;;;40.90;35.78;;;24.70;38.60;;;;;;5093798;28;20028;-58
2021/03/09 10:48:01;;;;;;;17.42;9.20;;;24.70;38.60;;;;;;5109915;28;20024;-59
2021/03/09 10:50:38;;;;;;;14.10;8.55;;;24.80;38.40;;;;;;5094317;28;20036;-59
2021/03/09 10:53:04;;;;;;;9.82;6.07;;;24.90;38.30;;;;;;5094366;28;20466;-58
2021/03/09 10:55:30;;;;;;;17.92;12.13;;;24.90;38.40;;;;;;5094205;28;20047;-59
2021/03/09 10:57:56;;;;;;;9.77;5.45;;;24.90;38.40;;;;;;5094099;28;20039;-60
2021/03/09 11:00:22;;;;;;;14.25;7.50;;;24.90;38.40;;;;;;5075032;28;20032;-58
2021/03/09 11:02:49;;;;;;;43.70;36.40;;;24.90;38.40;;;;;;5059365;28;20031;-61
2021/03/09 11:05:15;;;;;;;68.63;60.05;;;24.90;38.50;;;;;;5075406;28;20028;-57
2021/03/09 11:07:41;;;;;;;58.78;52.17;;;25.00;39.10;;;;;;5091481;28;20020;-60
2021/03/09 11:10:11;;;;;;;37.08;29.00;;;25.00;38.40;;;;;;5093251;28;20036;-56
2021/03/09 11:12:38;;;;;;;41.17;35.53;;;25.10;38.40;;;;;;5104705;28;20378;-61
2021/03/09 11:15:06;;;;;;;20.65;13.65;;;25.10;38.40;;;;;;5108404;28;20020;-61
2021/03/09 11:17:32;;;;;;;17.65;13.70;;;25.30;38.10;;;;;;5092736;28;20036;-61
2021/03/09 11:19:58;;;;;;;10.65;6.25;;;25.40;38.00;;;;;;5092300;28;20055;-59
2021/03/09 11:22:24;;;;;;;12.00;5.15;;;25.60;37.70;;;;;;5085466;28;20040;-58
2021/03/09 11:24:51;;;;;;;12.50;5.45;;;25.80;37.30;;;;;;5081134;28;20494;-60
2021/03/09 11:27:17;;;;;;;30.25;26.60;;;25.80;36.90;;;;;;5084257;28;20036;-58
2021/03/09 11:29:44;;;;;;;28.05;21.65;;;25.80;37.10;;;;;;5074754;28;20059;-57
2021/03/09 11:32:10;;;;;;;44.13;36.00;;;25.80;37.20;;;;;;5067177;28;20017;-58
2021/03/09 11:34:36;;;;;;;23.83;17.27;;;25.90;37.60;;;;;;5073288;28;20046;-57
2021/03/09 11:37:02;;;;;;;13.38;8.43;;;26.00;37.90;;;;;;5073035;28;20021;-57
2021/03/09 11:39:28;;;;;;;12.20;4.45;;;26.10;37.70;;;;;;5088253;28;20131;-59
2021/03/09 11:41:54;;;;;;;9.25;3.60;;;26.20;37.60;;;;;;5072847;28;20048;-58
2021/03/09 11:44:21;;;;;;;9.77;3.70;;;26.40;37.20;;;;;;5054683;28;20561;-58
2021/03/09 11:46:48;;;;;;;5.13;3.03;;;26.60;37.20;;;;;;5072750;28;20378;-57
2021/03/09 11:49:14;;;;;;;10.07;4.07;;;26.80;37.10;;;;;;5054503;28;20024;-56
2021/03/09 11:51:40;;;;;;;10.35;3.03;;;27.00;37.30;;;;;;5072646;28;20031;-57
2021/03/09 11:54:06;;;;;;;9.27;3.72;;;27.20;36.50;;;;;;5077030;28;20063;-57
2021/03/09 11:56:32;;;;;;;10.77;3.28;;;27.50;36.30;;;;;;5066885;28;20032;-56
2021/03/09 11:58:59;;;;;;;8.15;3.70;;;27.80;36.20;;;;;;5073551;28;20032;-59
2021/03/09 12:01:25;;;;;;;4.95;2.85;;;28.00;35.90;;;;;;5058336;28;20036;-62
2021/03/09 12:03:51;;;;;;;12.52;3.83;;;28.10;35.60;;;;;;5087129;28;20021;-62
2021/03/09 12:06:18;;;;;;;7.72;3.08;;;28.10;35.40;;;;;;5076413;28;20058;-59
2021/03/09 12:08:44;;;;;;;10.30;3.83;;;28.10;35.50;;;;;;5092158;28;20021;-59
2021/03/09 12:11:11;;;;;;;15.90;4.25;;;28.00;35.60;;;;;;5070415;28;20025;-59
2021/03/09 12:13:38;;;;;;;74.90;35.10;;;27.90;35.80;;;;;;5076910;28;20032;-59
2021/03/09 12:16:04;;;;;;;65.50;42.13;;;27.80;36.20;;;;;;5082355;28;20384;-55
2021/03/09 12:18:31;;;;;;;38.30;33.80;;;27.80;36.60;;;;;;5076149;28;20035;-57
2021/03/09 12:20:58;;;;;;;26.05;23.27;;;27.70;36.50;;;;;;5076796;28;20048;-57
2021/03/09 12:23:24;;;;;;;8.40;6.50;;;27.70;36.40;;;;;;5071837;28;20040;-57
2021/03/09 12:25:51;;;;;;;7.63;3.65;;;27.70;36.10;;;;;;5068144;28;20051;-57
2021/03/09 12:28:17;;;;;;;11.98;4.35;;;27.60;36.00;;;;;;5073179;28;20036;-58
2021/03/09 12:30:44;;;;;;;7.38;4.25;;;27.70;36.20;;;;;;5054338;28;20024;-59
2021/03/09 12:33:11;;;;;;;32.50;28.95;;;27.60;36.30;;;;;;5072700;28;20107;-59
2021/03/09 12:35:37;;;;;;;47.90;42.75;;;27.60;36.40;;;;;;5054151;28;20029;-59
2021/03/09 12:38:04;;;;;;;12.95;9.52;;;27.50;36.20;;;;;;5036732;28;20155;-60
2021/03/09 12:40:30;;;;;;;29.10;24.67;;;27.50;36.00;;;;;;5069857;28;20047;-61
2021/03/09 12:42:56;;;;;;;18.02;15.30;;;27.40;36.10;;;;;;5052472;28;20040;-62
2021/03/09 12:45:22;;;;;;;11.38;7.28;;;27.30;36.30;;;;;;5070188;28;20042;-62
2021/03/09 12:47:49;;;;;;;6.80;3.60;;;27.10;36.40;;;;;;5075204;28;20071;-62
2021/03/09 12:50:19;;;;;;;16.08;7.07;;;26.90;36.60;;;;;;5070677;28;20020;-62